createdAt,value
2023-09-04T00:00:15.815Z,86.71
2023-09-04T00:02:49.909Z,86.29
2023-09-04T00:05:20.992Z,86.14
2023-09-04T00:07:51.631Z,85.99
2023-09-04T00:10:22.667Z,85.88
2023-09-04T00:12:53.045Z,86.02
2023-09-04T00:15:23.687Z,85.75
2023-09-04T00:17:54.237Z,85.67
2023-09-04T00:20:25.715Z,85.86
2023-09-04T00:22:56.930Z,85.55
2023-09-04T00:25:26.000Z,85.51
2023-09-04T00:27:58.135Z,85.47
2023-09-04T00:30:28.671Z,85.36
2023-09-04T00:32:59.291Z,85.48
2023-09-04T00:35:29.904Z,85.25
2023-09-04T00:38:00.464Z,85.13
2023-09-04T00:40:30.923Z,85.23
2023-09-04T00:43:01.471Z,85.12
2023-09-04T00:45:32.325Z,85.09
2023-09-04T00:48:03.813Z,85.22
2023-09-04T00:50:34.804Z,85.12
2023-09-04T00:53:08.742Z,85.20
2023-09-04T00:55:39.612Z,85.13
2023-09-04T00:58:10.881Z,85.29
2023-09-04T01:00:42.212Z,85.49
2023-09-04T01:03:13.639Z,85.78
2023-09-04T01:05:44.024Z,85.86
2023-09-04T01:08:17.636Z,86.17
2023-09-04T01:10:56.740Z,86.48
2023-09-04T01:13:31.754Z,86.95
2023-09-04T01:16:03.262Z,87.24
2023-09-04T01:18:35.102Z,87.71
2023-09-04T01:21:06.285Z,87.97
2023-09-04T01:23:36.846Z,88.52
2023-09-04T01:26:23.094Z,88.98
2023-09-04T01:29:05.558Z,89.23
2023-09-04T01:31:41.465Z,89.91
2023-09-04T01:34:16.240Z,90.39
2023-09-04T01:36:49.636Z,91.00
2023-09-04T01:39:21.202Z,91.63
2023-09-04T01:41:51.736Z,92.17
2023-09-04T01:44:23.338Z,92.75
2023-09-04T01:46:53.766Z,93.05
2023-09-04T01:49:24.186Z,93.58
2023-09-04T01:51:59.233Z,93.76
2023-09-04T01:54:30.453Z,94.00
2023-09-04T01:57:01.058Z,94.43
2023-09-04T01:59:32.967Z,94.93
2023-09-04T02:02:04.147Z,95.23
2023-09-04T02:04:35.742Z,95.60
2023-09-04T02:07:07.086Z,95.98
2023-09-04T02:09:37.818Z,96.07
2023-09-04T02:12:08.804Z,96.80
2023-09-04T02:14:39.634Z,96.91
2023-09-04T02:17:10.093Z,97.19
2023-09-04T02:19:40.655Z,97.57
2023-09-04T02:22:13.574Z,98.15
2023-09-04T02:24:45.377Z,98.70
2023-09-04T02:27:15.935Z,99.07
2023-09-04T02:29:47.164Z,99.29
2023-09-04T02:32:16.151Z,99.59
2023-09-04T02:34:46.683Z,99.76
2023-09-04T02:37:17.434Z,99.98
2023-09-04T02:39:48.710Z,100.00
2023-09-04T02:42:19.199Z,100.00
2023-09-04T02:44:49.700Z,100.00
2023-09-04T02:47:20.372Z,100.00
2023-09-04T02:49:50.816Z,100.00
2023-09-04T02:52:21.205Z,100.00
2023-09-04T02:54:51.692Z,100.00
2023-09-04T02:57:22.096Z,100.00
2023-09-04T02:59:52.712Z,100.00
2023-09-04T03:02:23.349Z,100.00
2023-09-04T03:04:57.761Z,100.00
2023-09-04T03:07:28.718Z,100.00
2023-09-04T03:09:58.485Z,100.00
2023-09-04T03:12:31.333Z,100.00
2023-09-04T03:15:03.858Z,100.00
2023-09-04T03:17:36.185Z,100.00
2023-09-04T03:20:11.275Z,100.00
2023-09-04T03:22:42.042Z,100.00
2023-09-04T03:25:12.587Z,100.00
2023-09-04T03:27:42.961Z,100.00
2023-09-04T03:30:15.793Z,100.00
2023-09-04T03:32:46.994Z,100.00
2023-09-04T03:35:19.109Z,100.00
2023-09-04T03:37:49.776Z,100.00
2023-09-04T03:40:25.584Z,100.00
2023-09-04T03:42:56.674Z,100.00
2023-09-04T03:45:26.022Z,100.00
2023-09-04T03:47:56.954Z,100.00
2023-09-04T03:50:28.262Z,100.00
2023-09-04T03:52:59.483Z,100.00
2023-09-04T03:55:29.941Z,100.00
2023-09-04T03:58:00.617Z,100.00
2023-09-04T04:00:32.134Z,100.00
2023-09-04T04:03:03.394Z,100.00
2023-09-04T04:05:34.024Z,100.00
2023-09-04T04:08:04.778Z,100.00
2023-09-04T04:10:35.413Z,100.00
2023-09-04T04:13:06.129Z,100.00
2023-09-04T04:15:36.510Z,100.00
2023-09-04T04:18:09.841Z,100.00
2023-09-04T04:20:40.486Z,100.00
2023-09-04T04:23:11.158Z,100.00
2023-09-04T04:25:42.333Z,100.00
2023-09-04T04:28:11.294Z,100.00
2023-09-04T04:30:41.635Z,100.00
2023-09-04T04:33:12.315Z,100.00
2023-09-04T04:35:43.464Z,100.00
2023-09-04T04:38:13.876Z,100.00
2023-09-04T04:40:44.862Z,100.00
2023-09-04T04:43:16.376Z,100.00
2023-09-04T04:45:47.800Z,100.00
2023-09-04T04:48:20.383Z,100.00
2023-09-04T04:50:54.459Z,100.00
2023-09-04T04:53:27.905Z,100.00
2023-09-04T04:55:58.463Z,100.00
2023-09-04T04:58:28.887Z,100.00
2023-09-04T05:00:59.655Z,100.00
2023-09-04T05:03:30.348Z,100.00
2023-09-04T05:06:03.295Z,100.00
2023-09-04T05:08:34.031Z,100.00
2023-09-04T05:11:06.755Z,100.00
2023-09-04T05:13:40.504Z,100.00
2023-09-04T05:16:11.390Z,100.00
2023-09-04T05:18:43.295Z,100.00
2023-09-04T05:21:13.861Z,100.00
2023-09-04T05:23:45.336Z,100.00
2023-09-04T05:26:14.233Z,100.00
2023-09-04T05:28:44.663Z,100.00
2023-09-04T05:31:15.203Z,100.00
2023-09-04T05:33:45.717Z,100.00
2023-09-04T05:36:16.213Z,100.00
2023-09-04T05:38:48.054Z,100.00
2023-09-04T05:41:18.765Z,100.00
2023-09-04T05:43:49.401Z,100.00
2023-09-04T05:46:19.851Z,100.00
2023-09-04T05:48:50.499Z,100.00
2023-09-04T05:51:20.949Z,100.00
2023-09-04T05:53:51.578Z,100.00
2023-09-04T05:56:22.255Z,100.00
2023-09-04T05:58:53.836Z,100.00
2023-09-04T06:01:25.162Z,100.00
2023-09-04T06:03:54.266Z,100.00
2023-09-04T06:06:26.344Z,100.00
2023-09-04T06:08:56.838Z,100.00
2023-09-04T06:11:27.257Z,100.00
2023-09-04T06:13:57.659Z,100.00
2023-09-04T06:16:31.327Z,100.00
2023-09-04T06:19:01.941Z,100.00
2023-09-04T06:21:32.551Z,100.00
2023-09-04T06:24:03.326Z,100.00
2023-09-04T06:26:33.895Z,100.00
2023-09-04T06:29:07.607Z,100.00
2023-09-04T06:31:38.340Z,100.00
2023-09-04T06:34:08.874Z,100.00
2023-09-04T06:36:39.361Z,100.00
2023-09-04T06:39:10.858Z,100.00
2023-09-04T06:41:41.319Z,100.00
2023-09-04T06:44:11.672Z,100.00
2023-09-04T06:46:43.810Z,100.00
2023-09-04T06:49:14.770Z,100.00
2023-09-04T06:51:45.261Z,100.00
2023-09-04T06:54:15.857Z,100.00
2023-09-04T06:56:46.377Z,100.00
2023-09-04T06:59:17.035Z,99.88
2023-09-04T07:01:47.780Z,98.84
2023-09-04T07:04:21.247Z,98.16
2023-09-04T07:06:51.910Z,96.80
2023-09-04T07:09:22.248Z,95.96
2023-09-04T07:11:52.651Z,95.07
2023-09-04T07:14:23.054Z,94.43
2023-09-04T07:17:07.649Z,92.79
2023-09-04T07:19:40.049Z,91.46
2023-09-04T07:22:12.250Z,89.74
2023-09-04T07:24:42.659Z,89.11
2023-09-04T07:27:13.110Z,88.45
2023-09-04T07:29:43.520Z,87.92
2023-09-04T07:32:14.037Z,87.66
2023-09-04T07:34:44.503Z,86.04
2023-09-04T07:37:14.993Z,85.23
2023-09-04T07:39:45.466Z,84.47
2023-09-04T07:42:15.996Z,84.35
2023-09-04T07:44:46.419Z,84.35
2023-09-04T07:47:17.036Z,83.05
2023-09-04T07:49:47.520Z,82.27
2023-09-04T07:52:17.889Z,81.72
2023-09-04T07:54:50.628Z,80.59
2023-09-04T07:57:21.420Z,80.82
2023-09-04T07:59:51.892Z,79.05
2023-09-04T08:02:23.357Z,78.33
2023-09-04T08:04:53.961Z,76.48
2023-09-04T08:07:25.099Z,75.68
2023-09-04T08:09:54.111Z,75.15
2023-09-04T08:12:24.504Z,75.38
2023-09-04T08:14:54.946Z,74.76
2023-09-04T08:17:27.268Z,75.46
2023-09-04T08:19:57.920Z,74.77
2023-09-04T08:22:28.357Z,73.26
2023-09-04T08:24:59.854Z,71.94
2023-09-04T08:27:30.297Z,71.05
2023-09-04T08:30:00.769Z,70.83
2023-09-04T08:32:31.329Z,70.53
2023-09-04T08:35:01.678Z,69.08
2023-09-04T08:37:32.246Z,69.05
2023-09-04T08:40:02.951Z,68.23
2023-09-04T08:42:33.838Z,68.70
2023-09-04T08:45:05.441Z,66.34
2023-09-04T08:47:40.128Z,66.60
2023-09-04T08:50:12.511Z,66.15
2023-09-04T08:52:44.255Z,65.35
2023-09-04T08:55:15.365Z,64.85
2023-09-04T08:57:44.179Z,64.79
2023-09-04T09:00:17.167Z,64.35
2023-09-04T09:02:49.041Z,62.58
2023-09-04T09:05:21.615Z,62.28
2023-09-04T09:07:52.490Z,61.35
2023-09-04T09:10:25.798Z,60.61
2023-09-04T09:12:56.188Z,59.61
2023-09-04T09:15:27.474Z,59.51
2023-09-04T09:18:00.013Z,58.58
2023-09-04T09:20:35.691Z,58.20
2023-09-04T09:23:07.464Z,57.72
2023-09-04T09:25:39.440Z,56.93
2023-09-04T09:28:10.543Z,55.58
2023-09-04T09:30:42.930Z,55.16
2023-09-04T09:33:16.965Z,54.33
2023-09-04T09:35:47.312Z,53.51
2023-09-04T09:38:17.657Z,52.51
2023-09-04T09:40:49.028Z,50.96
2023-09-04T09:43:19.421Z,50.31
2023-09-04T09:45:53.526Z,50.15
2023-09-04T09:48:27.162Z,49.35
2023-09-04T09:51:02.399Z,48.45
2023-09-04T09:53:47.134Z,47.67
2023-09-04T09:56:19.491Z,46.83
2023-09-04T09:58:51.275Z,45.13
2023-09-04T10:01:21.946Z,43.85
2023-09-04T10:03:51.379Z,43.08
2023-09-04T10:06:27.128Z,41.92
2023-09-04T10:09:00.555Z,41.06
2023-09-04T10:11:34.930Z,41.06
2023-09-04T10:14:11.932Z,40.39
2023-09-04T10:16:45.194Z,38.71
2023-09-04T10:19:19.367Z,38.25
2023-09-04T10:21:54.575Z,37.79
2023-09-04T10:24:32.420Z,36.94
2023-09-04T10:27:11.997Z,37.79
2023-09-04T10:29:52.603Z,36.81
2023-09-04T10:32:23.530Z,36.65
2023-09-04T10:34:54.053Z,37.39
2023-09-04T10:37:28.036Z,36.08
2023-09-04T10:40:02.221Z,35.61
2023-09-04T10:42:34.908Z,35.07
2023-09-04T10:45:16.148Z,35.42
2023-09-04T10:47:51.429Z,34.21
2023-09-04T10:50:31.962Z,34.50
2023-09-04T10:53:05.542Z,33.48
2023-09-04T10:55:39.632Z,32.93
2023-09-04T10:58:11.691Z,32.85
2023-09-04T11:00:42.937Z,32.41
2023-09-04T11:03:20.296Z,31.85
2023-09-04T11:06:12.964Z,31.19
2023-09-04T11:08:53.167Z,32.01
2023-09-04T11:11:28.904Z,30.41
2023-09-04T11:14:01.905Z,29.72
2023-09-04T11:16:39.109Z,29.45
2023-09-04T11:19:15.970Z,30.00
2023-09-04T11:21:48.342Z,30.26
2023-09-04T11:24:21.482Z,29.09
2023-09-04T11:26:51.811Z,29.32
2023-09-04T11:29:22.297Z,28.83
2023-09-04T11:33:21.831Z,28.00
2023-09-04T11:34:45.891Z,28.16
2023-09-04T11:37:16.800Z,28.10
2023-09-04T11:40:02.925Z,26.40
2023-09-04T11:42:36.484Z,27.35
2023-09-04T11:45:07.963Z,26.87
2023-09-04T11:47:41.291Z,27.05
2023-09-04T11:50:18.056Z,26.70
2023-09-04T11:52:49.811Z,26.14
2023-09-04T11:55:22.227Z,26.71
2023-09-04T11:57:53.197Z,27.35
2023-09-04T12:00:26.273Z,26.16
2023-09-04T12:02:56.661Z,25.63
2023-09-04T12:05:27.181Z,26.38
2023-09-04T12:07:57.756Z,26.12
2023-09-04T12:10:28.602Z,26.29
2023-09-04T12:12:59.662Z,24.55
2023-09-04T12:15:34.440Z,23.77
2023-09-04T12:18:06.909Z,24.00
2023-09-04T12:20:39.019Z,23.87
2023-09-04T12:23:10.287Z,24.35
2023-09-04T12:25:42.791Z,24.65
2023-09-04T12:28:14.491Z,24.71
2023-09-04T12:30:47.297Z,24.79
2023-09-04T12:33:19.005Z,25.87
2023-09-04T12:35:57.849Z,24.67
2023-09-04T12:38:28.258Z,24.26
2023-09-04T12:41:00.045Z,24.40
2023-09-04T12:43:30.555Z,24.91
2023-09-04T12:46:01.397Z,25.31
2023-09-04T12:48:32.684Z,24.51
2023-09-04T12:51:03.533Z,24.01
2023-09-04T12:53:34.112Z,24.40
2023-09-04T12:56:05.214Z,24.90
2023-09-04T12:58:35.681Z,24.55
2023-09-04T13:01:06.316Z,23.51
2023-09-04T13:03:37.267Z,23.90
2023-09-04T13:06:08.547Z,24.06
2023-09-04T13:08:39.126Z,24.28
2023-09-04T13:11:09.544Z,24.44
2023-09-04T13:13:42.414Z,23.51
2023-09-04T13:16:12.837Z,23.41
2023-09-04T13:18:43.265Z,23.57
2023-09-04T13:21:13.644Z,23.61
2023-09-04T13:23:43.909Z,23.76
2023-09-04T13:26:14.199Z,23.15
2023-09-04T13:28:44.610Z,22.66
2023-09-04T13:31:17.322Z,23.12
2023-09-04T13:33:48.045Z,22.70
2023-09-04T13:36:18.612Z,22.27
2023-09-04T13:38:49.016Z,22.53
2023-09-04T13:41:19.458Z,22.12
2023-09-04T13:43:50.332Z,22.45
2023-09-04T13:46:20.720Z,22.58
2023-09-04T13:48:51.136Z,22.36
2023-09-04T13:51:22.455Z,21.55
2023-09-04T13:54:01.307Z,20.50
2023-09-04T13:56:31.657Z,20.18
2023-09-04T13:59:02.044Z,20.81
2023-09-04T14:01:32.565Z,20.67
2023-09-04T14:04:04.706Z,20.72
2023-09-04T14:06:35.220Z,21.49
2023-09-04T14:09:05.832Z,21.29
2023-09-04T14:11:36.219Z,20.45
2023-09-04T14:14:06.744Z,20.64
2023-09-04T14:16:37.123Z,20.93
2023-09-04T14:19:07.875Z,20.83
2023-09-04T14:21:39.279Z,20.36
2023-09-04T14:24:10.479Z,20.15
2023-09-04T14:26:40.805Z,20.68
2023-09-04T14:29:11.272Z,20.52
2023-09-04T14:31:41.746Z,19.79
2023-09-04T14:34:12.393Z,20.41
2023-09-04T14:36:47.785Z,20.52
2023-09-04T14:39:28.853Z,20.43
2023-09-04T14:41:59.257Z,20.83
2023-09-04T14:44:29.664Z,21.08
2023-09-04T14:46:59.951Z,20.05
2023-09-04T14:49:30.609Z,20.57
2023-09-04T14:52:00.934Z,20.87
2023-09-04T14:54:31.256Z,20.26
2023-09-04T14:57:03.844Z,19.73
2023-09-04T14:59:34.257Z,19.72
2023-09-04T15:02:04.950Z,20.33
2023-09-04T15:04:35.413Z,21.06
2023-09-04T15:07:06.402Z,20.99
2023-09-04T15:09:36.732Z,20.69
2023-09-04T15:12:08.262Z,20.93
2023-09-04T15:14:38.822Z,21.67
2023-09-04T15:17:09.393Z,21.67
2023-09-04T15:19:39.751Z,21.33
2023-09-04T15:22:10.123Z,21.29
2023-09-04T15:24:40.437Z,20.62
2023-09-04T15:27:10.780Z,20.24
2023-09-04T15:29:41.138Z,20.42
2023-09-04T15:32:11.452Z,20.83
2023-09-04T15:34:41.856Z,21.81
2023-09-04T15:37:13.349Z,21.89
2023-09-04T15:39:43.724Z,21.30
2023-09-04T15:42:14.216Z,21.61
2023-09-04T15:44:44.581Z,21.30
2023-09-04T15:47:15.898Z,22.08
2023-09-04T15:49:46.481Z,22.55
2023-09-04T15:52:16.828Z,23.09
2023-09-04T15:54:47.750Z,24.48
2023-09-04T15:57:18.154Z,25.03
2023-09-04T15:59:48.571Z,26.00
2023-09-04T16:02:18.948Z,25.92
2023-09-04T16:04:47.868Z,27.09
2023-09-04T16:07:18.270Z,27.39
2023-09-04T16:09:47.107Z,27.68
2023-09-04T16:12:17.493Z,27.73
2023-09-04T16:14:47.815Z,28.64
2023-09-04T16:17:19.791Z,28.84
2023-09-04T16:19:50.109Z,29.82
2023-09-04T16:22:22.435Z,30.69
2023-09-04T16:24:52.774Z,30.09
2023-09-04T16:27:23.197Z,30.79
2023-09-04T16:29:54.239Z,31.17
2023-09-04T16:32:24.763Z,31.90
2023-09-04T16:34:55.401Z,31.89
2023-09-04T16:37:25.892Z,32.63
2023-09-04T16:39:56.347Z,32.79
2023-09-04T16:42:26.687Z,32.77
2023-09-04T16:44:57.217Z,33.15
2023-09-04T16:47:27.578Z,33.48
2023-09-04T16:49:58.220Z,33.84
2023-09-04T16:52:29.516Z,34.39
2023-09-04T16:55:00.113Z,35.63
2023-09-04T16:57:30.507Z,35.96
2023-09-04T17:00:02.625Z,36.09
2023-09-04T17:02:33.218Z,36.61
2023-09-04T17:05:04.120Z,37.74
2023-09-04T17:07:34.739Z,37.50
2023-09-04T17:10:05.471Z,38.31
2023-09-04T17:12:35.858Z,38.06
2023-09-04T17:15:07.733Z,38.98
2023-09-04T17:17:38.242Z,39.84
2023-09-04T17:20:11.000Z,39.78
2023-09-04T17:22:41.436Z,40.39
2023-09-04T17:25:12.319Z,41.43
2023-09-04T17:27:41.434Z,42.04
2023-09-04T17:30:13.732Z,43.40
2023-09-04T17:32:44.239Z,44.33
2023-09-04T17:35:14.739Z,44.99
2023-09-04T17:37:45.203Z,45.91
2023-09-04T17:40:15.816Z,46.69
2023-09-04T17:42:46.574Z,47.16
2023-09-04T17:45:16.996Z,47.53
2023-09-04T17:47:47.303Z,48.30
2023-09-04T17:50:17.920Z,48.96
2023-09-04T17:52:48.250Z,49.78
2023-09-04T17:55:18.869Z,50.40
2023-09-04T17:57:49.231Z,51.14
2023-09-04T18:00:21.178Z,52.04
2023-09-04T18:02:51.697Z,52.44
2023-09-04T18:05:22.440Z,53.47
2023-09-04T18:07:53.358Z,54.12
2023-09-04T18:10:23.728Z,54.66
2023-09-04T18:12:54.300Z,55.33
2023-09-04T18:15:24.988Z,55.85
2023-09-04T18:17:55.602Z,56.76
2023-09-04T18:20:25.939Z,57.86
2023-09-04T18:22:56.255Z,57.92
2023-09-04T18:25:26.804Z,58.13
2023-09-04T18:27:57.178Z,58.82
2023-09-04T18:30:27.778Z,59.31
2023-09-04T18:32:58.346Z,60.18
2023-09-04T18:35:28.838Z,60.82
2023-09-04T18:37:59.172Z,61.65
2023-09-04T18:40:29.544Z,62.60
2023-09-04T18:42:59.958Z,62.54
2023-09-04T18:45:30.471Z,62.55
2023-09-04T18:48:00.834Z,62.97
2023-09-04T18:50:31.279Z,63.50
2023-09-04T18:53:02.608Z,63.92
2023-09-04T18:55:33.926Z,64.11
2023-09-04T18:58:04.998Z,64.70
2023-09-04T19:00:35.960Z,65.06
2023-09-04T19:03:05.466Z,65.47
2023-09-04T19:05:35.865Z,66.19
2023-09-04T19:08:07.270Z,66.22
2023-09-04T19:10:37.651Z,66.67
2023-09-04T19:13:09.220Z,67.05
2023-09-04T19:15:40.140Z,67.36
2023-09-04T19:18:11.161Z,67.75
2023-09-04T19:20:41.626Z,67.97
2023-09-04T19:23:12.239Z,68.59
2023-09-04T19:25:42.707Z,69.13
2023-09-04T19:28:13.345Z,69.52
2023-09-04T19:30:43.939Z,70.26
2023-09-04T19:33:14.482Z,70.57
2023-09-04T19:35:45.057Z,71.18
2023-09-04T19:38:15.424Z,72.06
2023-09-04T19:40:45.737Z,72.31
2023-09-04T19:43:16.144Z,72.65
2023-09-04T19:45:47.595Z,72.91
2023-09-04T19:48:18.200Z,73.07
2023-09-04T19:50:48.693Z,73.72
2023-09-04T19:53:19.106Z,74.15
2023-09-04T19:55:49.513Z,74.65
2023-09-04T19:58:20.483Z,74.84
2023-09-04T20:00:51.054Z,74.81
2023-09-04T20:03:21.848Z,75.32
2023-09-04T20:05:53.961Z,75.74
2023-09-04T20:08:24.669Z,75.85
2023-09-04T20:10:55.329Z,76.26
2023-09-04T20:13:26.867Z,76.83
2023-09-04T20:15:57.539Z,77.10
2023-09-04T20:18:28.379Z,77.52
2023-09-04T20:20:59.939Z,77.52
2023-09-04T20:23:30.380Z,77.76
2023-09-04T20:26:04.267Z,78.10
2023-09-04T20:28:34.758Z,78.39
2023-09-04T20:31:05.259Z,78.64
2023-09-04T20:33:35.874Z,78.67
2023-09-04T20:36:07.273Z,79.06
2023-09-04T20:38:37.974Z,79.24
2023-09-04T20:41:08.521Z,79.45
2023-09-04T20:43:39.131Z,79.82
2023-09-04T20:46:09.745Z,80.37
2023-09-04T20:48:40.491Z,80.24
2023-09-04T20:51:11.280Z,80.53
2023-09-04T20:53:42.258Z,80.72
2023-09-04T20:56:12.721Z,81.15
2023-09-04T20:58:43.103Z,81.31
2023-09-04T21:01:13.612Z,81.40
2023-09-04T21:03:44.005Z,81.89
2023-09-04T21:06:14.825Z,81.97
2023-09-04T21:08:44.046Z,82.04
2023-09-04T21:11:13.499Z,82.07
2023-09-04T21:14:01.755Z,82.16
2023-09-04T21:16:49.680Z,82.27
2023-09-04T21:19:37.678Z,82.38
2023-09-04T21:22:26.257Z,82.88
2023-09-04T21:25:14.169Z,83.09
2023-09-04T21:28:02.402Z,83.18
2023-09-04T21:30:50.536Z,83.31
2023-09-04T21:33:38.686Z,83.73
2023-09-04T21:36:26.683Z,84.10
2023-09-04T21:39:15.010Z,84.46
2023-09-04T21:42:03.207Z,84.78
2023-09-04T21:44:51.178Z,84.98
2023-09-04T21:47:39.223Z,84.99
2023-09-04T21:50:27.533Z,85.25
2023-09-04T21:53:15.597Z,85.26
2023-09-04T21:56:06.698Z,85.33
2023-09-04T21:58:54.817Z,85.44
2023-09-04T22:01:45.562Z,85.59
2023-09-04T22:04:33.587Z,85.40
2023-09-04T22:07:21.711Z,85.17
2023-09-04T22:10:09.865Z,85.20
2023-09-04T22:12:57.724Z,85.04
2023-09-04T22:15:48.238Z,84.78
2023-09-04T22:18:41.329Z,84.58
2023-09-04T22:21:29.761Z,84.43
2023-09-04T22:24:17.797Z,84.23
2023-09-04T22:27:05.969Z,84.58
2023-09-04T22:29:54.770Z,83.64
2023-09-04T22:32:42.800Z,82.24
2023-09-04T22:35:30.886Z,80.96
2023-09-04T22:38:19.355Z,79.42
2023-09-04T22:41:07.456Z,77.51
2023-09-04T22:43:55.554Z,75.54
2023-09-04T22:46:43.785Z,73.95
2023-09-04T22:49:31.797Z,72.33
2023-09-04T22:52:19.744Z,70.86
2023-09-04T22:55:07.751Z,69.25
2023-09-04T22:57:56.511Z,67.79
2023-09-04T23:00:44.775Z,66.63
2023-09-04T23:03:34.557Z,65.63
2023-09-04T23:06:22.637Z,64.80
2023-09-04T23:09:10.495Z,64.09
2023-09-04T23:11:58.333Z,63.25
2023-09-04T23:14:46.439Z,62.73
2023-09-04T23:17:34.711Z,62.16
2023-09-04T23:20:23.426Z,61.70
2023-09-04T23:22:54.323Z,61.49
2023-09-04T23:25:29.110Z,61.05
2023-09-04T23:28:05.416Z,60.49
2023-09-04T23:30:38.619Z,60.40
2023-09-04T23:33:12.588Z,60.15
2023-09-04T23:36:06.366Z,59.65
2023-09-04T23:39:02.844Z,59.50
2023-09-04T23:42:05.398Z,58.92
2023-09-04T23:44:58.531Z,58.28
2023-09-04T23:47:29.149Z,57.83
2023-09-04T23:50:00.761Z,57.29
2023-09-04T23:52:31.936Z,56.95
2023-09-04T23:55:01.100Z,56.63
2023-09-04T23:57:33.019Z,56.25
